TimeHST,TemperatureF,Dew PointF,Humidity,Sea Level PressureIn,VisibilityMPH,Wind Direction,Wind SpeedMPH,Gust SpeedMPH,PrecipitationIn,Events,Conditions,WindDirDegrees,DateUTC
12:53 AM,66.0,62.1,87,30.03,10.0,SW,5.8,-,N/A,,Mostly Cloudy,220,2013-03-28 10:53:00
1:53 AM,66.0,62.1,87,30.01,10.0,SW,3.5,-,N/A,,Mostly Cloudy,230,2013-03-28 11:53:00
2:53 AM,66.0,64.0,93,29.99,10.0,SW,4.6,-,0.02,,Scattered Clouds,230,2013-03-28 12:53:00
3:53 AM,66.0,63.0,90,29.97,10.0,SW,6.9,-,N/A,,Mostly Cloudy,230,2013-03-28 13:53:00
4:53 AM,64.9,61.0,87,29.97,10.0,WSW,5.8,-,N/A,,Mostly Cloudy,240,2013-03-28 14:53:00
5:53 AM,64.0,59.0,84,29.99,10.0,WSW,6.9,-,N/A,,Mostly Cloudy,240,2013-03-28 15:53:00
6:53 AM,64.9,59.0,81,30.01,10.0,SW,4.6,-,N/A,,Mostly Cloudy,220,2013-03-28 16:53:00
7:53 AM,66.9,61.0,81,30.03,10.0,WSW,6.9,-,N/A,,Mostly Cloudy,240,2013-03-28 17:53:00
8:53 AM,73.9,64.0,71,30.04,10.0,Calm,Calm,-,N/A,,Mostly Cloudy,0,2013-03-28 18:53:00
9:53 AM,75.9,63.0,64,30.05,10.0,North,5.8,-,N/A,,Mostly Cloudy,350,2013-03-28 19:53:00
10:53 AM,77.0,63.0,62,30.04,10.0,North,8.1,-,N/A,,Mostly Cloudy,10,2013-03-28 20:53:00
11:53 AM,77.0,63.0,62,30.03,10.0,North,10.4,-,N/A,,Mostly Cloudy,360,2013-03-28 21:53:00
12:53 PM,75.9,63.0,64,30.01,10.0,North,11.5,-,N/A,,Mostly Cloudy,350,2013-03-28 22:53:00
1:53 PM,75.9,63.0,64,30.00,10.0,NW,10.4,-,N/A,,Mostly Cloudy,320,2013-03-28 23:53:00
2:53 PM,78.1,64.0,62,29.98,10.0,NNE,9.2,-,N/A,,Mostly Cloudy,20,2013-03-29 00:53:00
3:53 PM,78.1,63.0,60,29.97,10.0,NNW,8.1,-,N/A,,Mostly Cloudy,340,2013-03-29 01:53:00
4:53 PM,77.0,63.0,62,29.98,10.0,NNE,9.2,-,N/A,,Mostly Cloudy,20,2013-03-29 02:53:00
5:53 PM,73.9,62.1,66,29.99,10.0,North,6.9,-,N/A,,Mostly Cloudy,10,2013-03-29 03:53:00
6:53 PM,73.0,62.1,68,30.01,10.0,North,4.6,-,0.00,,Overcast,350,2013-03-29 04:53:00
7:24 PM,72.0,64.0,76,30.02,10.0,NNW,6.9,-,N/A,,Mostly Cloudy,340,2013-03-29 05:24:00
7:49 PM,71.6,64.4,78,30.03,10.0,NW,6.9,-,N/A,,Scattered Clouds,320,2013-03-29 05:49:00
7:53 PM,71.1,64.0,78,30.03,10.0,NW,6.9,-,N/A,,Scattered Clouds,320,2013-03-29 05:53:00
8:53 PM,69.1,64.9,87,30.04,10.0,WSW,3.5,-,0.01,,Mostly Cloudy,240,2013-03-29 06:53:00
9:44 PM,68.0,62.1,81,30.07,2.5,West,4.6,-,0.10,Rain,Heavy Rain,260,2013-03-29 07:44:00
9:53 PM,68.0,63.0,84,30.07,6.0,WSW,5.8,-,0.14,Rain,Light Rain,250,2013-03-29 07:53:00
10:18 PM,68.0,64.0,87,30.07,10.0,WSW,8.1,-,0.00,,Overcast,250,2013-03-29 08:18:00
10:53 PM,66.9,63.0,87,30.07,10.0,WSW,6.9,-,0.00,,Scattered Clouds,240,2013-03-29 08:53:00
11:18 PM,66.9,64.0,90,30.07,10.0,Variable,3.5,-,0.01,Rain,Light Rain,0,2013-03-29 09:18:00
11:53 PM,66.9,64.0,90,30.06,10.0,SE,3.5,-,0.01,,Overcast,130,2013-03-29 09:53:00